sensor_id;sensor_type;location;lat;lon;timestamp;temperature;humidity
69281;SHT31;56392;51.082;17.080;2022-10-15T00:02:50;11.99;84.71
69281;SHT31;56392;51.082;17.080;2022-10-15T00:07:53;12.04;84.37
69281;SHT31;56392;51.082;17.080;2022-10-15T00:12:57;12.09;84.07
69281;SHT31;56392;51.082;17.080;2022-10-15T00:17:59;12.07;84.11
69281;SHT31;56392;51.082;17.080;2022-10-15T00:23:02;12.06;83.68
69281;SHT31;56392;51.082;17.080;2022-10-15T00:28:06;12.06;83.40
69281;SHT31;56392;51.082;17.080;2022-10-15T00:33:09;11.96;83.41
69281;SHT31;56392;51.082;17.080;2022-10-15T00:38:12;11.93;83.34
69281;SHT31;56392;51.082;17.080;2022-10-15T00:43:16;11.90;83.29
69281;SHT31;56392;51.082;17.080;2022-10-15T00:48:19;11.86;83.38
69281;SHT31;56392;51.082;17.080;2022-10-15T00:53:22;11.65;83.61
69281;SHT31;56392;51.082;17.080;2022-10-15T00:58:28;11.52;83.84
69281;SHT31;56392;51.082;17.080;2022-10-15T01:03:33;11.43;83.95
69281;SHT31;56392;51.082;17.080;2022-10-15T01:08:37;11.22;84.80
69281;SHT31;56392;51.082;17.080;2022-10-15T01:13:46;11.11;84.96
69281;SHT31;56392;51.082;17.080;2022-10-15T01:18:56;11.08;84.77
69281;SHT31;56392;51.082;17.080;2022-10-15T01:24:44;11.00;85.08
69281;SHT31;56392;51.082;17.080;2022-10-15T01:30:24;10.91;85.16
69281;SHT31;56392;51.082;17.080;2022-10-15T01:35:33;10.83;85.28
69281;SHT31;56392;51.082;17.080;2022-10-15T01:40:43;10.78;85.24
69281;SHT31;56392;51.082;17.080;2022-10-15T01:45:52;10.78;85.24
69281;SHT31;56392;51.082;17.080;2022-10-15T01:50:59;10.50;86.43
69281;SHT31;56392;51.082;17.080;2022-10-15T01:56:06;10.37;87.12
69281;SHT31;56392;51.082;17.080;2022-10-15T02:01:11;10.40;87.25
69281;SHT31;56392;51.082;17.080;2022-10-15T02:06:19;10.37;87.33
69281;SHT31;56392;51.082;17.080;2022-10-15T02:11:23;10.47;87.21
69281;SHT31;56392;51.082;17.080;2022-10-15T02:16:30;10.46;87.25
69281;SHT31;56392;51.082;17.080;2022-10-15T02:21:43;10.35;87.72
69281;SHT31;56392;51.082;17.080;2022-10-15T02:26:48;10.30;86.65
69281;SHT31;56392;51.082;17.080;2022-10-15T02:31:55;10.37;87.68
69281;SHT31;56392;51.082;17.080;2022-10-15T02:37:01;10.40;87.40
69281;SHT31;56392;51.082;17.080;2022-10-15T02:42:04;10.42;87.38
69281;SHT31;56392;51.082;17.080;2022-10-15T02:47:09;10.46;87.23
69281;SHT31;56392;51.082;17.080;2022-10-15T02:52:12;10.46;87.15
69281;SHT31;56392;51.082;17.080;2022-10-15T02:57:15;10.43;86.99
69281;SHT31;56392;51.082;17.080;2022-10-15T03:02:20;10.46;86.93
69281;SHT31;56392;51.082;17.080;2022-10-15T03:07:22;10.40;87.18
69281;SHT31;56392;51.082;17.080;2022-10-15T03:12:25;10.35;87.67
69281;SHT31;56392;51.082;17.080;2022-10-15T03:17:29;10.32;87.75
69281;SHT31;56392;51.082;17.080;2022-10-15T03:22:32;10.28;87.89
69281;SHT31;56392;51.082;17.080;2022-10-15T03:27:34;10.32;87.93
69281;SHT31;56392;51.082;17.080;2022-10-15T03:32:39;10.17;88.69
69281;SHT31;56392;51.082;17.080;2022-10-15T03:37:41;10.26;88.06
69281;SHT31;56392;51.082;17.080;2022-10-15T03:42:48;10.26;88.23
69281;SHT31;56392;51.082;17.080;2022-10-15T03:47:53;10.33;88.02
69281;SHT31;56392;51.082;17.080;2022-10-15T03:52:55;10.40;87.77
69281;SHT31;56392;51.082;17.080;2022-10-15T03:57:58;10.30;88.31
69281;SHT31;56392;51.082;17.080;2022-10-15T04:03:02;10.37;87.89
69281;SHT31;56392;51.082;17.080;2022-10-15T04:08:05;10.35;88.36
69281;SHT31;56392;51.082;17.080;2022-10-15T04:13:08;10.33;88.51
69281;SHT31;56392;51.082;17.080;2022-10-15T04:18:12;10.43;88.25
69281;SHT31;56392;51.082;17.080;2022-10-15T04:23:16;10.47;88.22
69281;SHT31;56392;51.082;17.080;2022-10-15T04:28:19;10.50;88.24
69281;SHT31;56392;51.082;17.080;2022-10-15T04:33:23;10.36;88.97
69281;SHT31;56392;51.082;17.080;2022-10-15T04:38:26;10.43;88.74
69281;SHT31;56392;51.082;17.080;2022-10-15T04:43:29;10.52;88.57
69281;SHT31;56392;51.082;17.080;2022-10-15T04:48:35;10.57;88.37
69281;SHT31;56392;51.082;17.080;2022-10-15T04:53:38;10.60;88.31
69281;SHT31;56392;51.082;17.080;2022-10-15T04:58:41;10.64;88.22
69281;SHT31;56392;51.082;17.080;2022-10-15T05:03:47;10.68;88.14
69281;SHT31;56392;51.082;17.080;2022-10-15T05:08:51;10.78;87.89
69281;SHT31;56392;51.082;17.080;2022-10-15T05:13:55;10.77;88.08
69281;SHT31;56392;51.082;17.080;2022-10-15T05:19:02;10.90;87.76
69281;SHT31;56392;51.082;17.080;2022-10-15T05:24:05;10.96;87.63
69281;SHT31;56392;51.082;17.080;2022-10-15T05:29:08;10.87;88.11
69281;SHT31;56392;51.082;17.080;2022-10-15T05:34:12;10.90;88.10
69281;SHT31;56392;51.082;17.080;2022-10-15T05:39:15;10.84;88.44
69281;SHT31;56392;51.082;17.080;2022-10-15T05:44:18;10.87;88.43
69281;SHT31;56392;51.082;17.080;2022-10-15T05:49:22;10.94;88.40
69281;SHT31;56392;51.082;17.080;2022-10-15T05:54:25;11.05;87.88
69281;SHT31;56392;51.082;17.080;2022-10-15T05:59:28;11.10;87.90
69281;SHT31;56392;51.082;17.080;2022-10-15T06:04:32;11.18;87.74
69281;SHT31;56392;51.082;17.080;2022-10-15T06:09:35;11.28;87.48
69281;SHT31;56392;51.082;17.080;2022-10-15T06:14:37;11.32;87.43
69281;SHT31;56392;51.082;17.080;2022-10-15T06:19:41;11.43;87.28
69281;SHT31;56392;51.082;17.080;2022-10-15T06:24:44;11.49;87.17
69281;SHT31;56392;51.082;17.080;2022-10-15T06:29:47;11.62;86.81
69281;SHT31;56392;51.082;17.080;2022-10-15T06:34:51;11.73;86.61
69281;SHT31;56392;51.082;17.080;2022-10-15T06:39:54;11.83;86.24
69281;SHT31;56392;51.082;17.080;2022-10-15T06:44:56;12.01;85.84
69281;SHT31;56392;51.082;17.080;2022-10-15T06:50:00;12.18;85.39
69281;SHT31;56392;51.082;17.080;2022-10-15T06:55:04;12.36;84.93
69281;SHT31;56392;51.082;17.080;2022-10-15T07:00:08;12.48;84.68
69281;SHT31;56392;51.082;17.080;2022-10-15T07:05:12;12.77;84.06
69281;SHT31;56392;51.082;17.080;2022-10-15T07:10:16;13.02;83.18
69281;SHT31;56392;51.082;17.080;2022-10-15T07:15:19;13.24;82.40
69281;SHT31;56392;51.082;17.080;2022-10-15T07:20:24;13.29;82.47
69281;SHT31;56392;51.082;17.080;2022-10-15T07:25:27;13.32;82.13
69281;SHT31;56392;51.082;17.080;2022-10-15T07:30:30;13.46;81.97
69281;SHT31;56392;51.082;17.080;2022-10-15T07:35:36;13.64;81.59
69281;SHT31;56392;51.082;17.080;2022-10-15T07:40:39;13.80;81.36
69281;SHT31;56392;51.082;17.080;2022-10-15T07:45:46;13.88;81.26
69281;SHT31;56392;51.082;17.080;2022-10-15T07:50:54;14.14;80.75
69281;SHT31;56392;51.082;17.080;2022-10-15T07:55:58;14.45;80.31
69281;SHT31;56392;51.082;17.080;2022-10-15T08:01:01;14.58;80.01
69281;SHT31;56392;51.082;17.080;2022-10-15T08:06:06;14.83;79.93
69281;SHT31;56392;51.082;17.080;2022-10-15T08:11:11;15.20;78.77
69281;SHT31;56392;51.082;17.080;2022-10-15T08:16:15;15.42;78.73
69281;SHT31;56392;51.082;17.080;2022-10-15T08:21:21;15.59;78.37
69281;SHT31;56392;51.082;17.080;2022-10-15T08:26:24;15.62;78.05
69281;SHT31;56392;51.082;17.080;2022-10-15T08:31:27;15.86;77.53
69281;SHT31;56392;51.082;17.080;2022-10-15T08:36:31;15.75;77.83
69281;SHT31;56392;51.082;17.080;2022-10-15T08:41:37;15.69;78.00
69281;SHT31;56392;51.082;17.080;2022-10-15T08:46:45;15.68;78.31
69281;SHT31;56392;51.082;17.080;2022-10-15T08:51:53;15.68;78.80
69281;SHT31;56392;51.082;17.080;2022-10-15T08:57:08;15.58;79.54
69281;SHT31;56392;51.082;17.080;2022-10-15T09:02:16;15.47;80.04
69281;SHT31;56392;51.082;17.080;2022-10-15T09:07:30;15.35;80.90
69281;SHT31;56392;51.082;17.080;2022-10-15T09:12:41;15.28;81.74
69281;SHT31;56392;51.082;17.080;2022-10-15T09:17:48;15.23;83.00
69281;SHT31;56392;51.082;17.080;2022-10-15T09:22:53;15.34;83.19
69281;SHT31;56392;51.082;17.080;2022-10-15T09:27:58;15.40;83.36
69281;SHT31;56392;51.082;17.080;2022-10-15T09:33:07;15.51;83.52
69281;SHT31;56392;51.082;17.080;2022-10-15T09:38:24;15.65;82.80
69281;SHT31;56392;51.082;17.080;2022-10-15T09:43:32;15.78;82.53
69281;SHT31;56392;51.082;17.080;2022-10-15T09:48:40;15.91;81.95
69281;SHT31;56392;51.082;17.080;2022-10-15T09:53:51;16.06;81.30
69281;SHT31;56392;51.082;17.080;2022-10-15T09:58:58;16.13;80.29
69281;SHT31;56392;51.082;17.080;2022-10-15T10:04:12;16.17;79.76
69281;SHT31;56392;51.082;17.080;2022-10-15T10:09:19;16.27;79.46
69281;SHT31;56392;51.082;17.080;2022-10-15T10:14:25;16.26;78.63
69281;SHT31;56392;51.082;17.080;2022-10-15T10:19:28;16.19;78.61
69281;SHT31;56392;51.082;17.080;2022-10-15T10:24:33;16.19;78.32
69281;SHT31;56392;51.082;17.080;2022-10-15T10:29:38;16.20;78.35
69281;SHT31;56392;51.082;17.080;2022-10-15T10:34:41;16.24;78.07
69281;SHT31;56392;51.082;17.080;2022-10-15T10:39:51;16.30;77.64
69281;SHT31;56392;51.082;17.080;2022-10-15T10:44:54;16.39;77.45
69281;SHT31;56392;51.082;17.080;2022-10-15T10:49:57;16.54;77.10
69281;SHT31;56392;51.082;17.080;2022-10-15T10:55:04;16.67;76.54
69281;SHT31;56392;51.082;17.080;2022-10-15T11:00:12;16.74;76.58
69281;SHT31;56392;51.082;17.080;2022-10-15T11:05:23;16.80;75.33
69281;SHT31;56392;51.082;17.080;2022-10-15T11:10:32;16.92;74.97
69281;SHT31;56392;51.082;17.080;2022-10-15T11:15:44;17.25;73.92
69281;SHT31;56392;51.082;17.080;2022-10-15T11:20:56;17.36;73.29
69281;SHT31;56392;51.082;17.080;2022-10-15T11:26:17;17.38;73.47
69281;SHT31;56392;51.082;17.080;2022-10-15T11:31:30;17.32;72.68
69281;SHT31;56392;51.082;17.080;2022-10-15T11:36:51;17.42;71.97
69281;SHT31;56392;51.082;17.080;2022-10-15T11:42:03;17.50;71.92
69281;SHT31;56392;51.082;17.080;2022-10-15T11:47:21;17.59;71.55
69281;SHT31;56392;51.082;17.080;2022-10-15T11:52:37;17.83;71.00
69281;SHT31;56392;51.082;17.080;2022-10-15T11:57:44;17.97;70.70
69281;SHT31;56392;51.082;17.080;2022-10-15T12:02:48;17.94;69.38
69281;SHT31;56392;51.082;17.080;2022-10-15T12:07:52;17.89;69.93
69281;SHT31;56392;51.082;17.080;2022-10-15T12:13:01;18.00;69.66
69281;SHT31;56392;51.082;17.080;2022-10-15T12:18:13;18.04;69.67
69281;SHT31;56392;51.082;17.080;2022-10-15T12:23:22;18.03;70.01
69281;SHT31;56392;51.082;17.080;2022-10-15T12:28:30;18.05;69.94
69281;SHT31;56392;51.082;17.080;2022-10-15T12:33:43;17.97;69.68
69281;SHT31;56392;51.082;17.080;2022-10-15T12:38:56;18.03;69.84
69281;SHT31;56392;51.082;17.080;2022-10-15T12:44:06;18.08;69.87
69281;SHT31;56392;51.082;17.080;2022-10-15T12:49:46;18.05;69.35
69281;SHT31;56392;51.082;17.080;2022-10-15T12:55:19;17.96;69.55
69281;SHT31;56392;51.082;17.080;2022-10-15T13:00:33;18.01;69.75
69281;SHT31;56392;51.082;17.080;2022-10-15T13:05:36;18.03;69.79
69281;SHT31;56392;51.082;17.080;2022-10-15T13:10:44;18.04;69.47
69281;SHT31;56392;51.082;17.080;2022-10-15T13:15:56;18.03;69.12
69281;SHT31;56392;51.082;17.080;2022-10-15T13:21:00;18.01;68.84
69281;SHT31;56392;51.082;17.080;2022-10-15T13:26:18;17.96;69.05
69281;SHT31;56392;51.082;17.080;2022-10-15T13:31:25;17.86;69.25
69281;SHT31;56392;51.082;17.080;2022-10-15T13:36:31;17.80;69.66
69281;SHT31;56392;51.082;17.080;2022-10-15T13:41:36;17.80;69.65
69281;SHT31;56392;51.082;17.080;2022-10-15T13:46:43;17.72;69.61
69281;SHT31;56392;51.082;17.080;2022-10-15T13:51:47;17.67;69.65
69281;SHT31;56392;51.082;17.080;2022-10-15T13:56:52;17.60;70.03
69281;SHT31;56392;51.082;17.080;2022-10-15T14:01:59;17.53;70.41
69281;SHT31;56392;51.082;17.080;2022-10-15T14:07:15;17.42;70.73
69281;SHT31;56392;51.082;17.080;2022-10-15T14:12:19;17.35;71.10
69281;SHT31;56392;51.082;17.080;2022-10-15T14:17:25;17.25;71.54
69281;SHT31;56392;51.082;17.080;2022-10-15T14:22:28;17.15;72.14
69281;SHT31;56392;51.082;17.080;2022-10-15T14:27:32;17.07;72.34
69281;SHT31;56392;51.082;17.080;2022-10-15T14:32:45;16.98;72.47
69281;SHT31;56392;51.082;17.080;2022-10-15T14:37:58;16.98;72.77
69281;SHT31;56392;51.082;17.080;2022-10-15T14:43:03;16.98;72.85
69281;SHT31;56392;51.082;17.080;2022-10-15T14:48:10;16.98;73.06
69281;SHT31;56392;51.082;17.080;2022-10-15T14:53:17;16.92;73.18
69281;SHT31;56392;51.082;17.080;2022-10-15T14:58:21;16.87;73.63
69281;SHT31;56392;51.082;17.080;2022-10-15T15:03:28;16.81;74.08
69281;SHT31;56392;51.082;17.080;2022-10-15T15:08:31;16.75;74.36
69281;SHT31;56392;51.082;17.080;2022-10-15T15:13:38;16.70;74.84
69281;SHT31;56392;51.082;17.080;2022-10-15T15:18:42;16.63;74.88
69281;SHT31;56392;51.082;17.080;2022-10-15T15:23:47;16.50;75.26
69281;SHT31;56392;51.082;17.080;2022-10-15T15:28:50;16.46;75.50
69281;SHT31;56392;51.082;17.080;2022-10-15T15:33:54;16.33;76.42
69281;SHT31;56392;51.082;17.080;2022-10-15T15:38:57;16.24;76.91
69281;SHT31;56392;51.082;17.080;2022-10-15T15:44:00;16.20;77.09
69281;SHT31;56392;51.082;17.080;2022-10-15T15:49:06;16.13;77.56
69281;SHT31;56392;51.082;17.080;2022-10-15T15:54:09;16.10;77.58
69281;SHT31;56392;51.082;17.080;2022-10-15T15:59:12;16.00;78.20
69281;SHT31;56392;51.082;17.080;2022-10-15T16:04:16;15.92;78.46
69281;SHT31;56392;51.082;17.080;2022-10-15T16:09:19;15.88;78.43
69281;SHT31;56392;51.082;17.080;2022-10-15T16:14:23;15.85;78.68
69281;SHT31;56392;51.082;17.080;2022-10-15T16:19:28;15.82;78.80
69281;SHT31;56392;51.082;17.080;2022-10-15T16:24:30;15.83;78.63
69281;SHT31;56392;51.082;17.080;2022-10-15T16:29:33;15.78;78.69
69281;SHT31;56392;51.082;17.080;2022-10-15T16:34:37;15.81;78.65
69281;SHT31;56392;51.082;17.080;2022-10-15T16:39:40;15.81;78.72
69281;SHT31;56392;51.082;17.080;2022-10-15T16:44:42;15.78;78.51
69281;SHT31;56392;51.082;17.080;2022-10-15T16:49:47;15.78;78.05
69281;SHT31;56392;51.082;17.080;2022-10-15T16:54:49;15.81;77.74
69281;SHT31;56392;51.082;17.080;2022-10-15T16:59:52;15.83;77.59
69281;SHT31;56392;51.082;17.080;2022-10-15T17:04:56;15.82;77.52
69281;SHT31;56392;51.082;17.080;2022-10-15T17:09:59;15.85;77.32
69281;SHT31;56392;51.082;17.080;2022-10-15T17:15:02;15.88;77.29
69281;SHT31;56392;51.082;17.080;2022-10-15T17:20:07;15.91;77.36
69281;SHT31;56392;51.082;17.080;2022-10-15T17:25:10;15.86;77.77
69281;SHT31;56392;51.082;17.080;2022-10-15T17:30:13;15.81;78.25
69281;SHT31;56392;51.082;17.080;2022-10-15T17:35:17;15.73;78.48
69281;SHT31;56392;51.082;17.080;2022-10-15T17:40:20;15.73;78.54
69281;SHT31;56392;51.082;17.080;2022-10-15T17:45:23;15.77;78.21
69281;SHT31;56392;51.082;17.080;2022-10-15T17:50:26;15.78;78.02
69281;SHT31;56392;51.082;17.080;2022-10-15T17:55:30;15.83;77.90
69281;SHT31;56392;51.082;17.080;2022-10-15T18:00:33;15.83;77.92
69281;SHT31;56392;51.082;17.080;2022-10-15T18:05:37;15.86;77.93
69281;SHT31;56392;51.082;17.080;2022-10-15T18:10:40;15.83;78.07
69281;SHT31;56392;51.082;17.080;2022-10-15T18:15:44;15.83;78.19
69281;SHT31;56392;51.082;17.080;2022-10-15T18:20:48;15.86;78.26
69281;SHT31;56392;51.082;17.080;2022-10-15T18:25:59;15.85;78.35
69281;SHT31;56392;51.082;17.080;2022-10-15T18:31:03;15.83;78.33
69281;SHT31;56392;51.082;17.080;2022-10-15T18:36:11;15.72;78.59
69281;SHT31;56392;51.082;17.080;2022-10-15T18:41:15;15.62;78.82
69281;SHT31;56392;51.082;17.080;2022-10-15T18:46:18;15.47;79.23
69281;SHT31;56392;51.082;17.080;2022-10-15T18:51:23;15.38;79.47
69281;SHT31;56392;51.082;17.080;2022-10-15T18:56:28;15.21;79.79
69281;SHT31;56392;51.082;17.080;2022-10-15T19:01:32;15.07;80.14
69281;SHT31;56392;51.082;17.080;2022-10-15T19:06:38;15.00;80.55
69281;SHT31;56392;51.082;17.080;2022-10-15T19:11:44;14.91;80.78
69281;SHT31;56392;51.082;17.080;2022-10-15T19:16:47;14.83;81.06
69281;SHT31;56392;51.082;17.080;2022-10-15T19:21:52;14.75;81.18
69281;SHT31;56392;51.082;17.080;2022-10-15T19:26:56;14.70;81.39
69281;SHT31;56392;51.082;17.080;2022-10-15T19:32:00;14.59;81.70
69281;SHT31;56392;51.082;17.080;2022-10-15T19:37:07;14.43;81.84
69281;SHT31;56392;51.082;17.080;2022-10-15T19:42:10;14.35;82.12
69281;SHT31;56392;51.082;17.080;2022-10-15T19:47:13;14.25;82.36
69281;SHT31;56392;51.082;17.080;2022-10-15T19:52:21;14.22;82.79
69281;SHT31;56392;51.082;17.080;2022-10-15T19:57:24;14.17;82.71
69281;SHT31;56392;51.082;17.080;2022-10-15T20:02:26;14.02;82.75
69281;SHT31;56392;51.082;17.080;2022-10-15T20:07:30;13.87;82.68
69281;SHT31;56392;51.082;17.080;2022-10-15T20:12:33;13.75;82.89
69281;SHT31;56392;51.082;17.080;2022-10-15T20:17:36;13.61;83.31
69281;SHT31;56392;51.082;17.080;2022-10-15T20:22:40;13.53;83.40
69281;SHT31;56392;51.082;17.080;2022-10-15T20:27:43;13.56;83.57
69281;SHT31;56392;51.082;17.080;2022-10-15T20:32:46;13.51;83.78
69281;SHT31;56392;51.082;17.080;2022-10-15T20:37:50;13.53;84.04
69281;SHT31;56392;51.082;17.080;2022-10-15T20:42:53;13.57;84.27
69281;SHT31;56392;51.082;17.080;2022-10-15T20:47:56;13.57;84.24
69281;SHT31;56392;51.082;17.080;2022-10-15T20:53:01;13.51;84.15
69281;SHT31;56392;51.082;17.080;2022-10-15T20:58:04;13.44;83.98
69281;SHT31;56392;51.082;17.080;2022-10-15T21:03:07;13.24;84.06
69281;SHT31;56392;51.082;17.080;2022-10-15T21:08:11;13.27;85.50
69281;SHT31;56392;51.082;17.080;2022-10-15T21:13:14;13.36;85.38
69281;SHT31;56392;51.082;17.080;2022-10-15T21:18:16;13.36;85.40
69281;SHT31;56392;51.082;17.080;2022-10-15T21:23:23;13.35;85.29
69281;SHT31;56392;51.082;17.080;2022-10-15T21:28:25;13.40;85.26
69281;SHT31;56392;51.082;17.080;2022-10-15T21:33:28;13.49;85.24
69281;SHT31;56392;51.082;17.080;2022-10-15T21:38:32;13.50;85.26
69281;SHT31;56392;51.082;17.080;2022-10-15T21:43:35;13.53;85.29
69281;SHT31;56392;51.082;17.080;2022-10-15T21:48:39;13.53;85.17
69281;SHT31;56392;51.082;17.080;2022-10-15T21:53:45;13.37;86.02
69281;SHT31;56392;51.082;17.080;2022-10-15T21:58:48;13.35;85.88
69281;SHT31;56392;51.082;17.080;2022-10-15T22:03:52;13.29;85.95
69281;SHT31;56392;51.082;17.080;2022-10-15T22:08:57;13.27;86.02
69281;SHT31;56392;51.082;17.080;2022-10-15T22:14:02;13.29;86.13
69281;SHT31;56392;51.082;17.080;2022-10-15T22:19:06;13.39;85.85
69281;SHT31;56392;51.082;17.080;2022-10-15T22:24:13;13.44;85.67
69281;SHT31;56392;51.082;17.080;2022-10-15T22:29:19;13.35;86.14
69281;SHT31;56392;51.082;17.080;2022-10-15T22:34:22;13.30;86.33
69281;SHT31;56392;51.082;17.080;2022-10-15T22:39:27;13.42;85.92
69281;SHT31;56392;51.082;17.080;2022-10-15T22:44:29;13.49;85.65
69281;SHT31;56392;51.082;17.080;2022-10-15T22:49:32;13.42;86.10
69281;SHT31;56392;51.082;17.080;2022-10-15T22:54:36;13.47;85.89
69281;SHT31;56392;51.082;17.080;2022-10-15T22:59:39;13.53;85.65
69281;SHT31;56392;51.082;17.080;2022-10-15T23:04:43;13.59;85.50
69281;SHT31;56392;51.082;17.080;2022-10-15T23:09:48;13.54;85.43
69281;SHT31;56392;51.082;17.080;2022-10-15T23:14:51;13.51;85.48
69281;SHT31;56392;51.082;17.080;2022-10-15T23:19:54;13.44;85.72
69281;SHT31;56392;51.082;17.080;2022-10-15T23:24:58;13.33;86.17
69281;SHT31;56392;51.082;17.080;2022-10-15T23:30:01;13.29;86.24
69281;SHT31;56392;51.082;17.080;2022-10-15T23:35:05;13.26;86.19
69281;SHT31;56392;51.082;17.080;2022-10-15T23:40:10;13.22;86.36
69281;SHT31;56392;51.082;17.080;2022-10-15T23:45:13;13.18;86.48
69281;SHT31;56392;51.082;17.080;2022-10-15T23:50:15;13.20;86.47
69281;SHT31;56392;51.082;17.080;2022-10-15T23:55:20;13.12;86.43
